Aérodrome :
LOGIN :

S'inscrire | Disclaimer

   EN    FR    IT 

 










Légende :    VFR   VFR Marginal   IFR   IFR Intensif   IFR Très Intensif
Visi : 
Plafond : 
>= 8 km
>= 3000ft
5 à 8 km
1000 à 3000 ft
1500m à 5 km
500 à 1000 ft
800 à 1500m
200 à 500 ft
< 800m
< 200 ft
Symboles :   Orages  Brouillard  Fortes neiges  Fortes précipitations  Vent > 20 kt
SIGMETs :   Divers  Orages  Givrage  Turbulence  Onde Orograph.  Cendres Volcan.






- Altitude de l'aérodrome : 614 ft
- Code IATA : CRL


EBCI - Charleroi

DERNIER METAR :
  • 221320Z 12003KT 360V150 4500 BR SCT003 BKN011 00/M01 Q1035 TEMPO 2000 BR BKN008

METARs EXPIRÉS :
  • 221250Z 14004KT 110V200 3200 BR SCT003 BKN011 M00/M01 Q1036 TEMPO 2000 BR BKN008
  • 221220Z 10004KT 3200 BR SCT003 BKN012 M00/M01 Q1036 TEMPO 2000 BR BKN008
  • 221150Z 09003KT 3200 BR SCT003 BKN012 M01/M02 Q1036 TEMPO 2000 BR BKN008
  • 221120Z 15003KT 110V190 2500 BR SCT002 BKN012 M01/M02 Q1036 TEMPO BKN008
  • 221050Z 10003KT 070V150 1500 BR SCT002 BKN004 M01/M02 Q1037 BECMG SCT004 BKN008

TAF TAF EBCI
Valide du 22 à 12h jusqu'au 23 à 18h UTC


221120Z 2212/2318 VRB03KT 4000 BR BKN005
TEMPO 2212/2214 SCT005 BKN015
TEMPO 2214/2309 2500 -DZ BKN003
PROB40
TEMPO 2218/2310 0500 FG BKN002
PROB40 2312/2318 8000 NSW FEW020



MET'MAP, la Météo Aéronautique d'un coup d'oeil ! - Copyright ORBIFLY Décembre 2007 - Disclaimer

ORBIFLY MET'MAP TEAM :

Programmation & Développement : Alexandra Zaïnal
Sur une idée originale de : Baudouin d'Aumeries
Assistance à la programmation : Marc-Olivier Méhu
Soutien technique & logistique : Manuel Goepfert

Contact : metmap@orbifly.com




SOURCES & CREDITS :

   NOAA